sensor_id;sensor_type;location;lat;lon;timestamp;P1;durP1;ratioP1;P2;durP2;ratioP2
74894;SDS011;63447;49.446;8.666;2023-08-08T00:01:05;5.03;;;1.80;;
74894;SDS011;63447;49.446;8.666;2023-08-08T00:03:30;3.93;;;1.47;;
74894;SDS011;63447;49.446;8.666;2023-08-08T00:05:56;6.57;;;2.30;;
74894;SDS011;63447;49.446;8.666;2023-08-08T00:08:21;5.20;;;1.77;;
74894;SDS011;63447;49.446;8.666;2023-08-08T00:10:51;4.80;;;1.55;;
74894;SDS011;63447;49.446;8.666;2023-08-08T00:13:17;4.68;;;1.63;;
74894;SDS011;63447;49.446;8.666;2023-08-08T00:15:42;4.95;;;1.63;;
74894;SDS011;63447;49.446;8.666;2023-08-08T00:18:08;4.57;;;1.30;;
74894;SDS011;63447;49.446;8.666;2023-08-08T00:20:33;5.47;;;1.80;;
74894;SDS011;63447;49.446;8.666;2023-08-08T00:22:59;5.63;;;1.57;;
74894;SDS011;63447;49.446;8.666;2023-08-08T00:25:26;5.38;;;1.50;;
74894;SDS011;63447;49.446;8.666;2023-08-08T00:27:54;5.20;;;1.63;;
74894;SDS011;63447;49.446;8.666;2023-08-08T00:30:20;4.60;;;1.50;;
74894;SDS011;63447;49.446;8.666;2023-08-08T00:32:45;4.60;;;1.42;;
74894;SDS011;63447;49.446;8.666;2023-08-08T00:35:10;5.27;;;1.40;;
74894;SDS011;63447;49.446;8.666;2023-08-08T00:37:36;4.57;;;1.33;;
74894;SDS011;63447;49.446;8.666;2023-08-08T00:40:01;4.43;;;1.65;;
74894;SDS011;63447;49.446;8.666;2023-08-08T00:42:29;4.22;;;1.48;;
74894;SDS011;63447;49.446;8.666;2023-08-08T00:44:57;4.88;;;1.67;;
74894;SDS011;63447;49.446;8.666;2023-08-08T00:47:27;5.13;;;1.40;;
74894;SDS011;63447;49.446;8.666;2023-08-08T00:49:57;3.75;;;1.13;;
74894;SDS011;63447;49.446;8.666;2023-08-08T00:52:22;4.63;;;1.65;;
74894;SDS011;63447;49.446;8.666;2023-08-08T00:54:50;6.65;;;1.70;;
74894;SDS011;63447;49.446;8.666;2023-08-08T00:57:17;6.63;;;1.65;;
74894;SDS011;63447;49.446;8.666;2023-08-08T00:59:45;4.85;;;1.33;;
74894;SDS011;63447;49.446;8.666;2023-08-08T01:02:11;4.93;;;1.50;;
74894;SDS011;63447;49.446;8.666;2023-08-08T01:04:36;6.15;;;1.40;;
74894;SDS011;63447;49.446;8.666;2023-08-08T01:07:08;4.28;;;1.30;;
74894;SDS011;63447;49.446;8.666;2023-08-08T01:09:57;5.80;;;1.20;;
74894;SDS011;63447;49.446;8.666;2023-08-08T01:12:29;4.43;;;1.55;;
74894;SDS011;63447;49.446;8.666;2023-08-08T01:14:55;3.70;;;1.33;;
74894;SDS011;63447;49.446;8.666;2023-08-08T01:17:21;4.53;;;1.23;;
74894;SDS011;63447;49.446;8.666;2023-08-08T01:19:47;4.55;;;1.52;;
74894;SDS011;63447;49.446;8.666;2023-08-08T01:22:22;4.50;;;1.50;;
74894;SDS011;63447;49.446;8.666;2023-08-08T01:24:54;4.88;;;1.48;;
74894;SDS011;63447;49.446;8.666;2023-08-08T01:27:22;5.43;;;1.58;;
74894;SDS011;63447;49.446;8.666;2023-08-08T01:29:47;5.68;;;1.73;;
74894;SDS011;63447;49.446;8.666;2023-08-08T01:32:13;4.45;;;1.65;;
74894;SDS011;63447;49.446;8.666;2023-08-08T01:34:38;4.07;;;1.40;;
74894;SDS011;63447;49.446;8.666;2023-08-08T01:37:07;6.03;;;2.13;;
74894;SDS011;63447;49.446;8.666;2023-08-08T01:39:59;4.55;;;1.80;;
74894;SDS011;63447;49.446;8.666;2023-08-08T01:42:25;5.85;;;1.63;;
74894;SDS011;63447;49.446;8.666;2023-08-08T01:44:52;6.43;;;1.52;;
74894;SDS011;63447;49.446;8.666;2023-08-08T01:47:18;6.15;;;1.48;;
74894;SDS011;63447;49.446;8.666;2023-08-08T01:49:46;4.50;;;1.60;;
74894;SDS011;63447;49.446;8.666;2023-08-08T01:52:11;3.60;;;1.30;;
74894;SDS011;63447;49.446;8.666;2023-08-08T01:54:41;5.00;;;1.42;;
74894;SDS011;63447;49.446;8.666;2023-08-08T01:57:07;5.10;;;1.90;;
74894;SDS011;63447;49.446;8.666;2023-08-08T01:59:33;4.30;;;1.38;;
74894;SDS011;63447;49.446;8.666;2023-08-08T02:02:00;4.93;;;1.70;;
74894;SDS011;63447;49.446;8.666;2023-08-08T02:04:26;6.40;;;1.40;;
74894;SDS011;63447;49.446;8.666;2023-08-08T02:06:54;4.57;;;1.38;;
74894;SDS011;63447;49.446;8.666;2023-08-08T02:09:19;3.97;;;1.60;;
74894;SDS011;63447;49.446;8.666;2023-08-08T02:11:48;4.22;;;1.40;;
74894;SDS011;63447;49.446;8.666;2023-08-08T02:14:13;5.20;;;1.80;;
74894;SDS011;63447;49.446;8.666;2023-08-08T02:16:38;4.70;;;1.73;;
74894;SDS011;63447;49.446;8.666;2023-08-08T02:19:04;6.00;;;1.60;;
74894;SDS011;63447;49.446;8.666;2023-08-08T02:21:30;5.47;;;1.52;;
74894;SDS011;63447;49.446;8.666;2023-08-08T02:23:55;5.20;;;1.50;;
74894;SDS011;63447;49.446;8.666;2023-08-08T02:26:24;4.82;;;1.60;;
74894;SDS011;63447;49.446;8.666;2023-08-08T02:28:52;5.32;;;1.60;;
74894;SDS011;63447;49.446;8.666;2023-08-08T02:31:19;5.68;;;1.63;;
74894;SDS011;63447;49.446;8.666;2023-08-08T02:33:48;4.00;;;1.55;;
74894;SDS011;63447;49.446;8.666;2023-08-08T02:36:16;6.60;;;1.63;;
74894;SDS011;63447;49.446;8.666;2023-08-08T02:38:45;5.38;;;1.50;;
74894;SDS011;63447;49.446;8.666;2023-08-08T02:41:10;4.00;;;1.60;;
74894;SDS011;63447;49.446;8.666;2023-08-08T02:43:38;5.50;;;1.50;;
74894;SDS011;63447;49.446;8.666;2023-08-08T02:46:03;5.03;;;1.63;;
74894;SDS011;63447;49.446;8.666;2023-08-08T02:48:29;4.93;;;1.73;;
74894;SDS011;63447;49.446;8.666;2023-08-08T02:50:57;5.18;;;1.60;;
74894;SDS011;63447;49.446;8.666;2023-08-08T02:53:23;4.37;;;1.70;;
74894;SDS011;63447;49.446;8.666;2023-08-08T02:55:48;4.77;;;1.60;;
74894;SDS011;63447;49.446;8.666;2023-08-08T02:58:18;5.28;;;1.73;;
74894;SDS011;63447;49.446;8.666;2023-08-08T03:00:46;4.10;;;1.55;;
74894;SDS011;63447;49.446;8.666;2023-08-08T03:03:14;4.65;;;1.90;;
74894;SDS011;63447;49.446;8.666;2023-08-08T03:05:39;5.60;;;1.70;;
74894;SDS011;63447;49.446;8.666;2023-08-08T03:08:05;4.55;;;1.50;;
74894;SDS011;63447;49.446;8.666;2023-08-08T03:10:32;5.80;;;1.77;;
74894;SDS011;63447;49.446;8.666;2023-08-08T03:13:02;5.40;;;1.90;;
74894;SDS011;63447;49.446;8.666;2023-08-08T03:15:28;5.55;;;1.60;;
74894;SDS011;63447;49.446;8.666;2023-08-08T03:17:56;5.00;;;1.75;;
74894;SDS011;63447;49.446;8.666;2023-08-08T03:20:24;4.65;;;1.50;;
74894;SDS011;63447;49.446;8.666;2023-08-08T03:22:49;5.40;;;1.90;;
74894;SDS011;63447;49.446;8.666;2023-08-08T03:25:16;6.35;;;1.90;;
74894;SDS011;63447;49.446;8.666;2023-08-08T03:27:42;4.70;;;1.73;;
74894;SDS011;63447;49.446;8.666;2023-08-08T03:30:08;6.78;;;1.40;;
74894;SDS011;63447;49.446;8.666;2023-08-08T03:32:34;4.95;;;1.77;;
74894;SDS011;63447;49.446;8.666;2023-08-08T03:35:02;4.90;;;1.60;;
74894;SDS011;63447;49.446;8.666;2023-08-08T03:37:29;4.30;;;1.40;;
74894;SDS011;63447;49.446;8.666;2023-08-08T03:39:55;6.32;;;1.90;;
74894;SDS011;63447;49.446;8.666;2023-08-08T03:42:20;5.33;;;1.70;;
74894;SDS011;63447;49.446;8.666;2023-08-08T03:44:45;5.25;;;1.80;;
74894;SDS011;63447;49.446;8.666;2023-08-08T03:47:13;4.38;;;1.70;;
74894;SDS011;63447;49.446;8.666;2023-08-08T03:49:38;5.07;;;1.70;;
74894;SDS011;63447;49.446;8.666;2023-08-08T03:52:04;4.70;;;1.60;;
74894;SDS011;63447;49.446;8.666;2023-08-08T03:54:30;5.82;;;1.80;;
74894;SDS011;63447;49.446;8.666;2023-08-08T03:56:57;5.00;;;1.75;;
74894;SDS011;63447;49.446;8.666;2023-08-08T03:59:23;3.83;;;1.70;;
74894;SDS011;63447;49.446;8.666;2023-08-08T04:01:50;6.60;;;1.90;;
74894;SDS011;63447;49.446;8.666;2023-08-08T04:04:18;7.35;;;2.55;;
74894;SDS011;63447;49.446;8.666;2023-08-08T04:06:43;5.60;;;1.90;;
74894;SDS011;63447;49.446;8.666;2023-08-08T04:09:13;4.95;;;1.88;;
74894;SDS011;63447;49.446;8.666;2023-08-08T04:11:43;8.18;;;2.55;;
74894;SDS011;63447;49.446;8.666;2023-08-08T04:14:10;5.50;;;1.80;;
74894;SDS011;63447;49.446;8.666;2023-08-08T04:16:36;6.60;;;1.95;;
74894;SDS011;63447;49.446;8.666;2023-08-08T04:19:01;4.60;;;1.70;;
74894;SDS011;63447;49.446;8.666;2023-08-08T04:21:30;5.45;;;1.73;;
74894;SDS011;63447;49.446;8.666;2023-08-08T04:23:57;5.85;;;1.90;;
74894;SDS011;63447;49.446;8.666;2023-08-08T04:26:27;4.82;;;1.63;;
74894;SDS011;63447;49.446;8.666;2023-08-08T04:28:55;6.88;;;1.75;;
74894;SDS011;63447;49.446;8.666;2023-08-08T04:31:23;3.90;;;1.50;;
74894;SDS011;63447;49.446;8.666;2023-08-08T04:33:51;6.40;;;2.55;;
74894;SDS011;63447;49.446;8.666;2023-08-08T04:36:23;6.15;;;1.83;;
74894;SDS011;63447;49.446;8.666;2023-08-08T04:38:48;6.13;;;2.05;;
74894;SDS011;63447;49.446;8.666;2023-08-08T04:41:16;7.67;;;1.97;;
74894;SDS011;63447;49.446;8.666;2023-08-08T04:43:41;5.20;;;1.90;;
74894;SDS011;63447;49.446;8.666;2023-08-08T04:46:07;5.70;;;1.90;;
74894;SDS011;63447;49.446;8.666;2023-08-08T04:48:35;7.57;;;2.10;;
74894;SDS011;63447;49.446;8.666;2023-08-08T04:51:05;6.43;;;1.85;;
74894;SDS011;63447;49.446;8.666;2023-08-08T04:53:35;6.28;;;2.08;;
74894;SDS011;63447;49.446;8.666;2023-08-08T04:56:03;6.80;;;2.00;;
74894;SDS011;63447;49.446;8.666;2023-08-08T04:58:29;6.10;;;2.20;;
74894;SDS011;63447;49.446;8.666;2023-08-08T05:00:56;6.93;;;2.20;;
74894;SDS011;63447;49.446;8.666;2023-08-08T05:03:26;6.32;;;2.47;;
74894;SDS011;63447;49.446;8.666;2023-08-08T05:05:57;6.50;;;1.90;;
74894;SDS011;63447;49.446;8.666;2023-08-08T05:08:24;6.90;;;2.22;;
74894;SDS011;63447;49.446;8.666;2023-08-08T05:10:54;6.22;;;2.03;;
74894;SDS011;63447;49.446;8.666;2023-08-08T05:13:19;7.25;;;2.25;;
74894;SDS011;63447;49.446;8.666;2023-08-08T05:15:46;7.60;;;2.25;;
74894;SDS011;63447;49.446;8.666;2023-08-08T05:18:12;6.50;;;2.00;;
74894;SDS011;63447;49.446;8.666;2023-08-08T05:20:39;7.25;;;2.10;;
74894;SDS011;63447;49.446;8.666;2023-08-08T05:23:05;6.17;;;2.00;;
74894;SDS011;63447;49.446;8.666;2023-08-08T05:25:32;4.80;;;1.90;;
74894;SDS011;63447;49.446;8.666;2023-08-08T05:27:57;6.35;;;1.90;;
74894;SDS011;63447;49.446;8.666;2023-08-08T05:30:23;8.60;;;2.60;;
74894;SDS011;63447;49.446;8.666;2023-08-08T05:32:53;6.20;;;2.05;;
74894;SDS011;63447;49.446;8.666;2023-08-08T05:35:18;7.57;;;2.27;;
74894;SDS011;63447;49.446;8.666;2023-08-08T05:37:43;6.13;;;2.13;;
74894;SDS011;63447;49.446;8.666;2023-08-08T05:40:09;8.07;;;2.33;;
74894;SDS011;63447;49.446;8.666;2023-08-08T05:42:37;7.53;;;3.33;;
74894;SDS011;63447;49.446;8.666;2023-08-08T05:45:05;7.45;;;2.90;;
74894;SDS011;63447;49.446;8.666;2023-08-08T05:47:34;5.13;;;2.15;;
74894;SDS011;63447;49.446;8.666;2023-08-08T05:50:01;6.13;;;2.30;;
74894;SDS011;63447;49.446;8.666;2023-08-08T05:52:27;6.10;;;2.15;;
74894;SDS011;63447;49.446;8.666;2023-08-08T05:54:55;6.45;;;1.83;;
74894;SDS011;63447;49.446;8.666;2023-08-08T05:57:26;7.35;;;2.15;;
74894;SDS011;63447;49.446;8.666;2023-08-08T05:59:51;7.10;;;2.72;;
74894;SDS011;63447;49.446;8.666;2023-08-08T06:02:19;5.75;;;1.98;;
74894;SDS011;63447;49.446;8.666;2023-08-08T06:04:47;5.10;;;1.58;;
74894;SDS011;63447;49.446;8.666;2023-08-08T06:07:15;7.35;;;2.22;;
74894;SDS011;63447;49.446;8.666;2023-08-08T06:09:40;6.35;;;1.88;;
74894;SDS011;63447;49.446;8.666;2023-08-08T06:12:06;5.57;;;2.00;;
74894;SDS011;63447;49.446;8.666;2023-08-08T06:14:37;6.07;;;2.08;;
74894;SDS011;63447;49.446;8.666;2023-08-08T06:17:04;5.90;;;2.20;;
74894;SDS011;63447;49.446;8.666;2023-08-08T06:19:32;4.80;;;1.88;;
74894;SDS011;63447;49.446;8.666;2023-08-08T06:21:58;8.50;;;2.33;;
74894;SDS011;63447;49.446;8.666;2023-08-08T06:24:25;5.90;;;1.90;;
74894;SDS011;63447;49.446;8.666;2023-08-08T06:26:55;7.20;;;2.22;;
74894;SDS011;63447;49.446;8.666;2023-08-08T06:29:21;7.00;;;1.97;;
74894;SDS011;63447;49.446;8.666;2023-08-08T06:31:48;5.63;;;2.00;;
74894;SDS011;63447;49.446;8.666;2023-08-08T06:34:16;5.53;;;1.92;;
74894;SDS011;63447;49.446;8.666;2023-08-08T06:36:46;5.78;;;2.65;;
74894;SDS011;63447;49.446;8.666;2023-08-08T06:39:12;5.47;;;2.10;;
74894;SDS011;63447;49.446;8.666;2023-08-08T06:41:37;5.40;;;1.90;;
74894;SDS011;63447;49.446;8.666;2023-08-08T06:44:10;6.43;;;2.10;;
74894;SDS011;63447;49.446;8.666;2023-08-08T06:46:35;6.20;;;2.10;;
74894;SDS011;63447;49.446;8.666;2023-08-08T06:49:03;4.90;;;1.88;;
74894;SDS011;63447;49.446;8.666;2023-08-08T06:51:31;8.30;;;1.98;;
74894;SDS011;63447;49.446;8.666;2023-08-08T06:54:01;5.72;;;2.25;;
74894;SDS011;63447;49.446;8.666;2023-08-08T06:56:27;5.47;;;2.10;;
74894;SDS011;63447;49.446;8.666;2023-08-08T06:58:56;6.90;;;2.50;;
74894;SDS011;63447;49.446;8.666;2023-08-08T07:01:21;5.53;;;2.10;;
74894;SDS011;63447;49.446;8.666;2023-08-08T07:03:49;5.53;;;2.10;;
74894;SDS011;63447;49.446;8.666;2023-08-08T07:06:19;5.47;;;1.67;;
74894;SDS011;63447;49.446;8.666;2023-08-08T07:08:47;4.80;;;1.67;;
74894;SDS011;63447;49.446;8.666;2023-08-08T07:11:12;4.53;;;1.60;;
74894;SDS011;63447;49.446;8.666;2023-08-08T07:13:42;5.28;;;1.80;;
74894;SDS011;63447;49.446;8.666;2023-08-08T07:16:07;6.70;;;1.65;;
74894;SDS011;63447;49.446;8.666;2023-08-08T07:18:40;6.43;;;1.67;;
74894;SDS011;63447;49.446;8.666;2023-08-08T07:21:07;11.45;;;1.98;;
74894;SDS011;63447;49.446;8.666;2023-08-08T07:23:35;5.23;;;1.70;;
74894;SDS011;63447;49.446;8.666;2023-08-08T07:26:00;5.38;;;1.90;;
74894;SDS011;63447;49.446;8.666;2023-08-08T07:28:26;8.27;;;3.40;;
74894;SDS011;63447;49.446;8.666;2023-08-08T07:30:51;6.23;;;1.80;;
74894;SDS011;63447;49.446;8.666;2023-08-08T07:33:16;5.60;;;1.60;;
74894;SDS011;63447;49.446;8.666;2023-08-08T07:35:42;5.70;;;1.83;;
74894;SDS011;63447;49.446;8.666;2023-08-08T07:38:11;3.78;;;1.30;;
74894;SDS011;63447;49.446;8.666;2023-08-08T07:40:37;5.22;;;1.50;;
74894;SDS011;63447;49.446;8.666;2023-08-08T07:43:02;5.10;;;1.42;;
74894;SDS011;63447;49.446;8.666;2023-08-08T07:45:30;5.38;;;1.65;;
74894;SDS011;63447;49.446;8.666;2023-08-08T07:47:55;5.10;;;1.58;;
74894;SDS011;63447;49.446;8.666;2023-08-08T07:50:20;6.90;;;3.17;;
74894;SDS011;63447;49.446;8.666;2023-08-08T07:52:48;4.07;;;1.60;;
74894;SDS011;63447;49.446;8.666;2023-08-08T07:55:16;3.67;;;1.25;;
74894;SDS011;63447;49.446;8.666;2023-08-08T07:57:46;6.03;;;1.60;;
74894;SDS011;63447;49.446;8.666;2023-08-08T08:00:14;5.22;;;1.73;;
74894;SDS011;63447;49.446;8.666;2023-08-08T08:02:43;4.28;;;1.30;;
74894;SDS011;63447;49.446;8.666;2023-08-08T08:05:10;4.78;;;1.25;;
74894;SDS011;63447;49.446;8.666;2023-08-08T08:07:36;4.68;;;1.40;;
74894;SDS011;63447;49.446;8.666;2023-08-08T08:10:03;4.85;;;1.30;;
74894;SDS011;63447;49.446;8.666;2023-08-08T08:12:29;3.20;;;1.08;;
74894;SDS011;63447;49.446;8.666;2023-08-08T08:14:57;5.45;;;1.30;;
74894;SDS011;63447;49.446;8.666;2023-08-08T08:17:23;4.32;;;1.30;;
74894;SDS011;63447;49.446;8.666;2023-08-08T08:19:51;4.18;;;1.27;;
74894;SDS011;63447;49.446;8.666;2023-08-08T08:22:16;4.38;;;1.20;;
74894;SDS011;63447;49.446;8.666;2023-08-08T08:24:44;3.70;;;1.10;;
74894;SDS011;63447;49.446;8.666;2023-08-08T08:27:12;3.42;;;1.38;;
74894;SDS011;63447;49.446;8.666;2023-08-08T08:29:38;4.68;;;1.33;;
74894;SDS011;63447;49.446;8.666;2023-08-08T08:32:07;5.15;;;1.65;;
74894;SDS011;63447;49.446;8.666;2023-08-08T08:34:37;4.20;;;1.30;;
74894;SDS011;63447;49.446;8.666;2023-08-08T08:37:07;4.63;;;1.10;;
74894;SDS011;63447;49.446;8.666;2023-08-08T08:39:35;6.85;;;2.00;;
74894;SDS011;63447;49.446;8.666;2023-08-08T08:42:05;5.50;;;1.30;;
74894;SDS011;63447;49.446;8.666;2023-08-08T08:44:31;3.95;;;1.20;;
74894;SDS011;63447;49.446;8.666;2023-08-08T08:47:00;4.38;;;1.30;;
74894;SDS011;63447;49.446;8.666;2023-08-08T08:49:35;4.22;;;1.40;;
74894;SDS011;63447;49.446;8.666;2023-08-08T08:52:07;5.15;;;1.30;;
74894;SDS011;63447;49.446;8.666;2023-08-08T08:54:32;4.85;;;1.50;;
74894;SDS011;63447;49.446;8.666;2023-08-08T08:56:58;4.32;;;1.20;;
74894;SDS011;63447;49.446;8.666;2023-08-08T08:59:25;4.13;;;1.20;;
74894;SDS011;63447;49.446;8.666;2023-08-08T09:01:51;3.65;;;1.20;;
74894;SDS011;63447;49.446;8.666;2023-08-08T09:04:20;4.70;;;1.20;;
74894;SDS011;63447;49.446;8.666;2023-08-08T09:06:49;4.13;;;1.30;;
74894;SDS011;63447;49.446;8.666;2023-08-08T09:09:16;4.78;;;1.75;;
74894;SDS011;63447;49.446;8.666;2023-08-08T09:11:42;4.90;;;1.30;;
74894;SDS011;63447;49.446;8.666;2023-08-08T09:14:22;3.47;;;1.10;;
74894;SDS011;63447;49.446;8.666;2023-08-08T09:16:50;3.53;;;1.00;;
74894;SDS011;63447;49.446;8.666;2023-08-08T09:19:21;3.17;;;1.05;;
74894;SDS011;63447;49.446;8.666;2023-08-08T09:21:47;3.97;;;1.20;;
74894;SDS011;63447;49.446;8.666;2023-08-08T09:24:15;3.72;;;1.17;;
74894;SDS011;63447;49.446;8.666;2023-08-08T09:26:41;3.60;;;1.20;;
74894;SDS011;63447;49.446;8.666;2023-08-08T09:29:08;4.15;;;1.10;;
74894;SDS011;63447;49.446;8.666;2023-08-08T09:31:38;3.22;;;0.90;;
74894;SDS011;63447;49.446;8.666;2023-08-08T09:34:06;3.17;;;0.93;;
74894;SDS011;63447;49.446;8.666;2023-08-08T09:36:36;3.00;;;0.82;;
74894;SDS011;63447;49.446;8.666;2023-08-08T09:39:01;3.53;;;0.90;;
74894;SDS011;63447;49.446;8.666;2023-08-08T09:41:27;4.18;;;1.00;;
74894;SDS011;63447;49.446;8.666;2023-08-08T09:43:55;4.72;;;1.10;;
74894;SDS011;63447;49.446;8.666;2023-08-08T09:46:20;4.78;;;1.15;;
74894;SDS011;63447;49.446;8.666;2023-08-08T09:48:47;3.97;;;1.10;;
74894;SDS011;63447;49.446;8.666;2023-08-08T09:51:13;4.63;;;1.10;;
74894;SDS011;63447;49.446;8.666;2023-08-08T09:53:39;3.58;;;1.15;;
74894;SDS011;63447;49.446;8.666;2023-08-08T09:56:06;3.80;;;1.13;;
74894;SDS011;63447;49.446;8.666;2023-08-08T09:58:32;4.65;;;1.10;;
74894;SDS011;63447;49.446;8.666;2023-08-08T10:00:58;4.90;;;1.23;;
74894;SDS011;63447;49.446;8.666;2023-08-08T10:03:29;3.90;;;1.02;;
74894;SDS011;63447;49.446;8.666;2023-08-08T10:06:00;3.63;;;1.00;;
74894;SDS011;63447;49.446;8.666;2023-08-08T10:08:28;3.40;;;1.23;;
74894;SDS011;63447;49.446;8.666;2023-08-08T10:10:55;5.45;;;1.10;;
74894;SDS011;63447;49.446;8.666;2023-08-08T10:15:52;3.15;;;0.98;;
74894;SDS011;63447;49.446;8.666;2023-08-08T10:18:26;3.95;;;1.20;;
74894;SDS011;63447;49.446;8.666;2023-08-08T10:20:54;3.72;;;1.00;;
74894;SDS011;63447;49.446;8.666;2023-08-08T10:23:26;3.20;;;0.95;;
74894;SDS011;63447;49.446;8.666;2023-08-08T10:26:01;3.75;;;1.00;;
74894;SDS011;63447;49.446;8.666;2023-08-08T10:28:29;3.80;;;1.00;;
74894;SDS011;63447;49.446;8.666;2023-08-08T10:30:58;4.13;;;1.00;;
74894;SDS011;63447;49.446;8.666;2023-08-08T10:33:39;3.17;;;0.88;;
74894;SDS011;63447;49.446;8.666;2023-08-08T10:36:07;4.30;;;1.10;;
74894;SDS011;63447;49.446;8.666;2023-08-08T10:38:46;3.55;;;1.00;;
74894;SDS011;63447;49.446;8.666;2023-08-08T10:41:17;3.95;;;0.98;;
74894;SDS011;63447;49.446;8.666;2023-08-08T10:43:48;3.13;;;0.88;;
74894;SDS011;63447;49.446;8.666;2023-08-08T10:46:14;4.32;;;1.10;;
74894;SDS011;63447;49.446;8.666;2023-08-08T10:48:53;3.25;;;0.98;;
74894;SDS011;63447;49.446;8.666;2023-08-08T10:51:21;3.40;;;0.90;;
74894;SDS011;63447;49.446;8.666;2023-08-08T10:53:46;4.05;;;1.00;;
74894;SDS011;63447;49.446;8.666;2023-08-08T10:56:22;3.17;;;0.90;;
74894;SDS011;63447;49.446;8.666;2023-08-08T10:58:48;3.63;;;0.98;;
74894;SDS011;63447;49.446;8.666;2023-08-08T11:01:14;3.55;;;0.98;;
74894;SDS011;63447;49.446;8.666;2023-08-08T11:03:41;4.28;;;1.00;;
74894;SDS011;63447;49.446;8.666;2023-08-08T11:06:08;3.88;;;0.90;;
74894;SDS011;63447;49.446;8.666;2023-08-08T11:08:34;4.68;;;1.08;;
74894;SDS011;63447;49.446;8.666;2023-08-08T11:11:03;5.93;;;1.00;;
74894;SDS011;63447;49.446;8.666;2023-08-08T11:13:28;3.53;;;1.10;;
74894;SDS011;63447;49.446;8.666;2023-08-08T11:15:54;3.85;;;1.08;;
74894;SDS011;63447;49.446;8.666;2023-08-08T11:18:20;3.13;;;0.82;;
74894;SDS011;63447;49.446;8.666;2023-08-08T11:20:47;4.63;;;1.02;;
74894;SDS011;63447;49.446;8.666;2023-08-08T11:23:13;3.53;;;1.02;;
74894;SDS011;63447;49.446;8.666;2023-08-08T11:25:42;3.17;;;1.02;;
74894;SDS011;63447;49.446;8.666;2023-08-08T11:28:08;3.63;;;0.95;;
74894;SDS011;63447;49.446;8.666;2023-08-08T11:30:37;3.83;;;0.98;;
74894;SDS011;63447;49.446;8.666;2023-08-08T11:33:04;3.67;;;0.90;;
74894;SDS011;63447;49.446;8.666;2023-08-08T11:35:32;5.40;;;1.05;;
74894;SDS011;63447;49.446;8.666;2023-08-08T11:37:59;3.90;;;0.98;;
74894;SDS011;63447;49.446;8.666;2023-08-08T11:40:26;4.13;;;1.25;;
74894;SDS011;63447;49.446;8.666;2023-08-08T11:42:54;4.22;;;1.00;;
74894;SDS011;63447;49.446;8.666;2023-08-08T11:45:22;4.57;;;1.10;;
74894;SDS011;63447;49.446;8.666;2023-08-08T11:47:48;3.53;;;1.02;;
74894;SDS011;63447;49.446;8.666;2023-08-08T11:50:15;4.45;;;1.23;;
74894;SDS011;63447;49.446;8.666;2023-08-08T11:52:41;3.17;;;1.00;;
74894;SDS011;63447;49.446;8.666;2023-08-08T11:55:10;3.42;;;1.00;;
74894;SDS011;63447;49.446;8.666;2023-08-08T11:57:40;4.95;;;1.23;;
74894;SDS011;63447;49.446;8.666;2023-08-08T12:00:09;5.18;;;1.23;;
74894;SDS011;63447;49.446;8.666;2023-08-08T12:02:39;5.20;;;1.20;;
74894;SDS011;63447;49.446;8.666;2023-08-08T12:05:13;3.60;;;1.17;;
74894;SDS011;63447;49.446;8.666;2023-08-08T12:07:42;4.18;;;1.23;;
74894;SDS011;63447;49.446;8.666;2023-08-08T12:10:16;3.88;;;0.90;;
74894;SDS011;63447;49.446;8.666;2023-08-08T12:12:43;3.70;;;1.00;;
74894;SDS011;63447;49.446;8.666;2023-08-08T12:15:09;4.07;;;1.08;;
74894;SDS011;63447;49.446;8.666;2023-08-08T12:17:36;3.92;;;1.10;;
74894;SDS011;63447;49.446;8.666;2023-08-08T12:20:07;4.03;;;1.10;;
74894;SDS011;63447;49.446;8.666;2023-08-08T12:22:35;3.40;;;1.05;;
74894;SDS011;63447;49.446;8.666;2023-08-08T12:25:01;4.40;;;1.00;;
74894;SDS011;63447;49.446;8.666;2023-08-08T12:27:28;3.70;;;0.98;;
74894;SDS011;63447;49.446;8.666;2023-08-08T12:29:54;3.88;;;0.95;;
74894;SDS011;63447;49.446;8.666;2023-08-08T12:32:22;3.73;;;0.93;;
74894;SDS011;63447;49.446;8.666;2023-08-08T12:34:51;3.40;;;0.95;;
74894;SDS011;63447;49.446;8.666;2023-08-08T12:37:17;4.47;;;0.97;;
74894;SDS011;63447;49.446;8.666;2023-08-08T12:39:42;4.30;;;0.85;;
74894;SDS011;63447;49.446;8.666;2023-08-08T12:42:08;2.80;;;0.98;;
74894;SDS011;63447;49.446;8.666;2023-08-08T12:44:33;3.40;;;0.93;;
74894;SDS011;63447;49.446;8.666;2023-08-08T12:47:03;4.93;;;1.00;;
74894;SDS011;63447;49.446;8.666;2023-08-08T12:49:29;2.95;;;0.80;;
74894;SDS011;63447;49.446;8.666;2023-08-08T12:51:57;3.17;;;1.10;;
74894;SDS011;63447;49.446;8.666;2023-08-08T12:54:24;3.92;;;1.08;;
74894;SDS011;63447;49.446;8.666;2023-08-08T12:56:50;3.58;;;0.93;;
74894;SDS011;63447;49.446;8.666;2023-08-08T12:59:16;3.20;;;0.90;;
74894;SDS011;63447;49.446;8.666;2023-08-08T13:01:43;3.95;;;0.90;;
74894;SDS011;63447;49.446;8.666;2023-08-08T13:04:09;3.27;;;0.90;;
74894;SDS011;63447;49.446;8.666;2023-08-08T13:06:36;3.50;;;0.90;;
74894;SDS011;63447;49.446;8.666;2023-08-08T13:09:04;3.20;;;1.00;;
74894;SDS011;63447;49.446;8.666;2023-08-08T13:11:29;2.90;;;0.88;;
74894;SDS011;63447;49.446;8.666;2023-08-08T13:13:57;3.97;;;0.82;;
74894;SDS011;63447;49.446;8.666;2023-08-08T13:16:29;4.65;;;1.00;;
74894;SDS011;63447;49.446;8.666;2023-08-08T13:18:54;3.75;;;0.98;;
74894;SDS011;63447;49.446;8.666;2023-08-08T13:21:20;4.07;;;0.90;;
74894;SDS011;63447;49.446;8.666;2023-08-08T13:23:45;4.10;;;1.00;;
74894;SDS011;63447;49.446;8.666;2023-08-08T13:26:11;3.95;;;1.02;;
74894;SDS011;63447;49.446;8.666;2023-08-08T13:28:41;3.20;;;0.95;;
74894;SDS011;63447;49.446;8.666;2023-08-08T13:31:07;3.80;;;0.90;;
74894;SDS011;63447;49.446;8.666;2023-08-08T13:33:33;2.75;;;0.73;;
74894;SDS011;63447;49.446;8.666;2023-08-08T13:36:01;4.40;;;1.08;;
74894;SDS011;63447;49.446;8.666;2023-08-08T13:38:29;3.20;;;0.82;;
74894;SDS011;63447;49.446;8.666;2023-08-08T13:40:55;3.53;;;0.95;;
74894;SDS011;63447;49.446;8.666;2023-08-08T13:43:20;3.07;;;0.80;;
74894;SDS011;63447;49.446;8.666;2023-08-08T13:45:48;3.90;;;1.00;;
74894;SDS011;63447;49.446;8.666;2023-08-08T13:48:13;4.10;;;0.90;;
74894;SDS011;63447;49.446;8.666;2023-08-08T13:50:38;3.23;;;0.90;;
74894;SDS011;63447;49.446;8.666;2023-08-08T13:53:04;3.23;;;0.90;;
74894;SDS011;63447;49.446;8.666;2023-08-08T13:55:29;3.60;;;0.97;;
74894;SDS011;63447;49.446;8.666;2023-08-08T13:57:54;2.93;;;0.87;;
74894;SDS011;63447;49.446;8.666;2023-08-08T14:00:23;3.78;;;0.90;;
74894;SDS011;63447;49.446;8.666;2023-08-08T14:02:48;3.22;;;0.85;;
74894;SDS011;63447;49.446;8.666;2023-08-08T14:05:13;5.00;;;1.13;;
74894;SDS011;63447;49.446;8.666;2023-08-08T14:07:41;4.18;;;0.90;;
74894;SDS011;63447;49.446;8.666;2023-08-08T14:10:11;3.42;;;0.85;;
74894;SDS011;63447;49.446;8.666;2023-08-08T14:12:36;4.60;;;0.95;;
74894;SDS011;63447;49.446;8.666;2023-08-08T14:15:03;4.00;;;1.05;;
74894;SDS011;63447;49.446;8.666;2023-08-08T14:17:31;4.47;;;1.05;;
74894;SDS011;63447;49.446;8.666;2023-08-08T14:19:56;2.83;;;0.80;;
74894;SDS011;63447;49.446;8.666;2023-08-08T14:22:24;3.67;;;0.90;;
74894;SDS011;63447;49.446;8.666;2023-08-08T14:24:49;3.17;;;0.98;;
74894;SDS011;63447;49.446;8.666;2023-08-08T14:27:17;3.10;;;0.90;;
74894;SDS011;63447;49.446;8.666;2023-08-08T14:29:45;3.22;;;0.90;;
74894;SDS011;63447;49.446;8.666;2023-08-08T14:32:10;3.90;;;1.10;;
74894;SDS011;63447;49.446;8.666;2023-08-08T14:34:35;4.63;;;1.00;;
74894;SDS011;63447;49.446;8.666;2023-08-08T14:37:04;2.50;;;1.00;;
74894;SDS011;63447;49.446;8.666;2023-08-08T14:39:29;4.00;;;1.05;;
74894;SDS011;63447;49.446;8.666;2023-08-08T14:41:55;4.07;;;1.00;;
74894;SDS011;63447;49.446;8.666;2023-08-08T14:44:23;4.05;;;1.00;;
74894;SDS011;63447;49.446;8.666;2023-08-08T14:46:49;4.00;;;1.02;;
74894;SDS011;63447;49.446;8.666;2023-08-08T14:49:14;4.97;;;1.00;;
74894;SDS011;63447;49.446;8.666;2023-08-08T14:51:39;3.20;;;1.05;;